Time;durP1;ratioP1;P1;durP2;ratioP2;P2;SDS_P1;SDS_P2;PMS_P1;PMS_P2;Temp;Humidity;BMP_temperature;BMP_pressure;BME280_temperature;BME280_humidity;BME280_pressure;Samples;Min_cycle;Max_cycle;Signal;HPM_P1;HPM_P2
2022/05/15 00:02:07;;;;;;;;;;;17.30;74.30;;;16.53;69.69;96448.22;4073151;34;19904;-87
2022/05/15 00:04:35;;;;;;;;;;;17.30;74.50;;;16.52;69.67;96446.59;4076108;34;20467;-87
2022/05/15 00:07:06;;;;;;;;;;;17.40;74.60;;;16.50;69.75;96451.59;4075546;34;19904;-87
2022/05/15 00:09:35;;;;;;;;;;;17.40;74.50;;;16.53;69.63;96450.16;4097889;34;19913;-87
2022/05/15 00:12:04;;;;;;;;;;;17.30;74.50;;;16.52;69.57;96446.59;4076127;34;19912;-87
2022/05/15 00:14:33;;;;;;;;;;;17.30;74.40;;;16.52;69.43;96443.03;4054266;34;19911;-85
2022/05/15 00:17:01;;;;;;;;;;;17.30;74.20;;;16.49;69.42;96438.91;4075560;34;20135;-87
2022/05/15 00:19:30;;;;;;;;;;;17.30;74.30;;;16.52;69.59;96446.59;4097875;34;20089;-87
2022/05/15 00:21:58;;;;;;;;;;;17.30;74.40;;;16.49;69.37;96438.91;4075705;34;20181;-87
2022/05/15 00:24:29;;;;;;;;;;;17.30;74.10;;;16.51;69.51;96442.19;4075955;34;20171;-87
2022/05/15 00:26:57;;;;;;;;;;;17.30;74.40;;;16.51;69.60;96442.19;4097463;34;20382;-86
2022/05/15 00:29:26;;;;;;;;;;;17.30;74.40;;;16.51;69.45;96442.19;4054052;34;19918;-87
2022/05/15 00:31:55;;;;;;;;;;;17.30;74.30;;;16.51;69.39;96447.72;4053997;34;19905;-85
2022/05/15 00:34:23;;;;;;;;;;;17.30;74.30;;;16.51;69.49;96444.94;4075888;34;20177;-86
2022/05/15 00:36:53;;;;;;;;;;;17.30;74.40;;;16.49;69.76;96433.38;4098333;34;20129;-87
2022/05/15 00:39:21;;;;;;;;;;;17.30;74.60;;;16.51;69.60;96441.38;4053838;34;19904;-87
2022/05/15 00:41:51;;;;;;;;;;;17.30;74.30;;;16.50;69.29;96440.53;4053556;34;20112;-86
2022/05/15 00:44:20;;;;;;;;;;;17.30;74.40;;;16.49;69.55;96444.44;4097954;34;19905;-87
2022/05/15 00:46:48;;;;;;;;;;;17.30;74.40;;;16.48;69.39;96440.03;4053467;34;20349;-86
2022/05/15 00:49:17;;;;;;;;;;;17.30;74.40;;;16.50;69.53;96442.50;4075526;34;19977;-86
2022/05/15 00:51:48;;;;;;;;;;;17.30;74.40;;;16.50;69.49;96439.72;4053247;34;19956;-87
2022/05/15 00:54:21;;;;;;;;;;;17.30;74.40;;;16.49;69.55;96438.91;4054071;34;20026;-87
2022/05/15 00:56:54;;;;;;;;;;;17.30;74.50;;;16.49;69.77;96433.38;4053356;34;20132;-88
2022/05/15 00:59:25;;;;;;;;;;;17.30;74.60;;;16.47;69.62;96424.56;4053736;34;20004;-87
2022/05/15 01:01:53;;;;;;;;;;;17.30;74.50;;;16.48;69.48;96434.50;4053715;34;20142;-86
2022/05/15 01:04:23;;;;;;;;;;;17.30;74.50;;;16.48;69.77;96431.72;4053751;34;19904;-87
2022/05/15 01:06:52;;;;;;;;;;;17.30;74.60;;;16.48;69.74;96419.88;4053300;34;19904;-88
2022/05/15 01:09:20;;;;;;;;;;;17.30;74.60;;;16.47;69.86;96429.28;4075218;34;19904;-85
2022/05/15 01:11:51;;;;;;;;;;;17.30;74.70;;;16.48;69.68;96420.69;4053440;34;19905;-86
2022/05/15 01:14:20;;;;;;;;;;;17.30;74.60;;;16.49;69.77;96432.56;4075339;34;19926;-86
2022/05/15 01:16:49;;;;;;;;;;;17.30;74.70;;;16.48;69.93;96425.41;4075033;34;19912;-86
2022/05/15 01:19:28;;;;;;;;;;;17.30;74.70;;;16.47;69.71;96421.00;4075346;34;20621;-86
2022/05/15 01:21:59;;;;;;;;;;;17.30;74.60;;;16.47;69.71;96421.00;4053533;34;20143;-86
2022/05/15 01:24:29;;;;;;;;;;;17.30;74.50;;;16.47;69.67;96423.75;4075295;34;20086;-87
2022/05/15 01:26:57;;;;;;;;;;;17.30;74.50;;;16.45;69.38;96418.53;4053040;34;19906;-86
2022/05/15 01:29:31;;;;;;;;;;;17.30;74.60;;;16.45;69.32;96410.25;4053461;34;19905;-86
2022/05/15 01:32:01;;;;;;;;;;;17.30;74.40;;;16.46;69.82;96419.34;4097192;34;19904;-86
2022/05/15 01:34:30;;;;;;;;;;;17.30;74.40;;;16.46;69.54;96413.81;4053396;34;19904;-86
2022/05/15 01:37:00;;;;;;;;;;;17.20;74.30;;;16.45;69.47;96414.94;4052835;34;19904;-86
2022/05/15 01:39:30;;;;;;;;;;;17.30;74.50;;;16.45;69.65;96421.31;4075075;34;19904;-87
2022/05/15 01:41:59;;;;;;;;;;;17.30;74.60;;;16.45;69.44;96421.31;4062529;34;20096;-86
2022/05/15 01:44:27;;;;;;;;;;;17.30;74.50;;;16.42;69.58;96417.19;4096817;34;20179;-86
2022/05/15 01:46:57;;;;;;;;;;;17.30;74.60;;;16.42;69.43;96410.84;4070118;34;20291;-87
2022/05/15 01:49:26;;;;;;;;;;;17.30;74.40;;;16.44;69.40;96414.13;4048948;34;19978;-87
2022/05/15 01:51:55;;;;;;;;;;;17.30;74.40;;;16.42;69.56;96419.13;4048795;34;19915;-87
2022/05/15 01:54:26;;;;;;;;;;;17.30;74.40;;;16.41;69.20;96421.06;4048800;34;20247;-88
2022/05/15 01:56:55;;;;;;;;;;;17.20;74.20;;;16.42;69.41;96421.91;4070105;34;19905;-86
2022/05/15 01:59:24;;;;;;;;;;;17.30;74.30;;;16.41;69.52;96414.72;4048772;34;19912;-87
2022/05/15 02:01:52;;;;;;;;;;;17.30;74.30;;;16.41;69.30;96421.06;4048591;34;19912;-86
2022/05/15 02:04:21;;;;;;;;;;;17.20;74.20;;;16.38;69.54;96418.09;4070480;34;20428;-86
2022/05/15 02:06:50;;;;;;;;;;;17.20;74.20;;;16.38;69.79;96416.16;4048068;34;19905;-86
2022/05/15 02:09:18;;;;;;;;;;;17.20;74.20;;;16.38;69.45;96418.09;4048787;34;19980;-86
2022/05/15 02:11:48;;;;;;;;;;;17.20;74.20;;;16.38;69.68;96410.66;4048412;34;19974;-86
2022/05/15 02:14:17;;;;;;;;;;;17.20;74.20;;;16.37;69.34;96410.94;4048545;34;19905;-86
2022/05/15 02:16:46;;;;;;;;;;;17.20;74.10;;;16.38;69.23;96415.34;4069739;34;19905;-86
2022/05/15 02:19:14;;;;;;;;;;;17.20;74.10;;;16.38;69.23;96418.09;4048451;34;19990;-86
2022/05/15 02:21:44;;;;;;;;;;;17.20;74.00;;;16.37;69.01;96424.75;4052231;34;19917;-86
2022/05/15 02:24:12;;;;;;;;;;;17.20;74.00;;;16.37;69.07;96424.75;4074478;34;20140;-86
2022/05/15 02:26:41;;;;;;;;;;;17.20;74.00;;;16.35;69.10;96433.34;4096224;34;19966;-86
2022/05/15 02:29:11;;;;;;;;;;;17.20;73.90;;;16.35;69.08;96426.97;4074404;34;20232;-86
2022/05/15 02:31:40;;;;;;;;;;;17.20;73.80;;;16.34;69.29;96431.69;4096467;34;20072;-87
2022/05/15 02:34:09;;;;;;;;;;;17.20;73.80;;;16.34;69.02;96430.88;4096685;34;20124;-87
2022/05/15 02:36:39;;;;;;;;;;;17.10;73.70;;;16.34;68.90;96439.16;4073869;34;19912;-87
2022/05/15 02:39:07;;;;;;;;;;;17.10;73.70;;;16.34;68.81;96430.88;4074253;34;19912;-87
2022/05/15 02:41:36;;;;;;;;;;;17.10;73.70;;;16.34;68.88;96436.38;4074362;34;20001;-87
2022/05/15 02:44:06;;;;;;;;;;;17.10;73.70;;;16.31;68.73;96434.25;4074077;34;20019;-87
2022/05/15 02:46:36;;;;;;;;;;;17.10;73.60;;;16.31;68.62;96434.25;4073134;34;20224;-88
2022/05/15 02:51:51;;;;;;;;;;;17.10;73.50;;;16.32;68.58;96439.47;4074273;34;20136;-87
2022/05/15 02:54:21;;;;;;;;;;;17.10;73.40;;;16.32;68.55;96441.44;4096201;34;20212;-87
2022/05/15 02:56:49;;;;;;;;;;;17.10;73.40;;;16.30;68.55;96438.13;4073867;34;19946;-87
2022/05/15 02:59:18;;;;;;;;;;;17.10;73.40;;;16.31;68.57;96437.03;4074104;34;19984;-87
2022/05/15 03:01:48;;;;;;;;;;;17.10;73.30;;;16.30;68.52;96438.94;4074301;34;19904;-87
2022/05/15 03:04:17;;;;;;;;;;;17.10;73.20;;;16.31;68.39;96445.31;4073733;34;19911;-87
2022/05/15 03:06:46;;;;;;;;;;;17.10;73.00;;;16.30;68.27;96440.91;4073674;34;19912;-86
2022/05/15 03:09:15;;;;;;;;;;;17.10;73.00;;;16.29;68.20;96445.59;4074008;34;20005;-86
2022/05/15 03:11:44;;;;;;;;;;;17.10;72.90;;;16.29;68.06;96450.31;4073834;34;19904;-86
2022/05/15 03:14:12;;;;;;;;;;;17.10;72.80;;;16.28;68.03;96443.13;4095766;34;19911;-85
2022/05/15 03:16:41;;;;;;;;;;;17.10;72.70;;;16.30;67.77;96451.94;4073628;34;20339;-87
2022/05/15 03:19:11;;;;;;;;;;;17.10;72.60;;;16.29;67.94;96447.53;4073877;34;19911;-86
2022/05/15 03:21:40;;;;;;;;;;;17.10;72.50;;;16.31;67.62;96448.06;4073968;34;19904;-86
2022/05/15 03:24:10;;;;;;;;;;;17.10;72.40;;;16.32;67.55;96455.25;4073955;34;19911;-86
2022/05/15 03:26:40;;;;;;;;;;;17.10;72.20;;;16.30;67.59;96457.47;4073322;34;20065;-86
2022/05/15 03:29:11;;;;;;;;;;;17.10;72.20;;;16.34;67.73;96452.97;4073968;34;19905;-86
2022/05/15 03:31:40;;;;;;;;;;;17.20;72.20;;;16.35;67.69;96460.13;4095867;34;20395;-86
2022/05/15 03:34:12;;;;;;;;;;;17.20;72.20;;;16.35;67.58;96460.97;4073814;34;20178;-86
2022/05/15 03:36:42;;;;;;;;;;;17.20;72.30;;;16.34;67.56;96447.44;4095507;34;20130;-86
2022/05/15 03:39:10;;;;;;;;;;;17.20;72.10;;;16.37;67.38;96466.19;4095788;34;20028;-86
2022/05/15 03:41:39;;;;;;;;;;;17.20;72.00;;;16.39;67.36;96463.94;4073967;34;20016;-86
2022/05/15 03:44:08;;;;;;;;;;;17.20;72.00;;;16.40;67.66;96462.81;4073781;34;19904;-86
2022/05/15 03:46:37;;;;;;;;;;;17.30;72.30;;;16.41;67.25;96470.00;4095350;34;19984;-86
2022/05/15 03:49:06;;;;;;;;;;;17.20;72.10;;;16.42;67.73;96477.16;4073776;34;19912;-86
2022/05/15 03:51:36;;;;;;;;;;;17.30;72.20;;;16.43;67.42;96473.28;4073820;34;19905;-86
2022/05/15 03:54:05;;;;;;;;;;;17.30;72.20;;;16.46;67.78;96467.13;4095281;34;19928;-86
2022/05/15 03:56:52;;;;;;;;;;;17.30;72.40;;;16.46;67.63;96475.41;4095110;34;19904;-86
2022/05/15 03:59:25;;;;;;;;;;;17.30;72.30;;;16.50;67.93;96483.94;4073604;34;19905;-86
2022/05/15 04:01:54;;;;;;;;;;;17.30;72.40;;;16.50;67.76;96476.47;4073828;34;19984;-86
2022/05/15 04:04:23;;;;;;;;;;;17.30;72.40;;;16.51;67.81;96480.88;4073612;34;19905;-86
2022/05/15 04:06:53;;;;;;;;;;;17.40;72.40;;;16.53;67.62;96477.78;4073127;34;19904;-86
2022/05/15 04:09:22;;;;;;;;;;;17.30;72.40;;;16.55;67.50;96490.22;4060395;34;19965;-86
2022/05/15 04:11:51;;;;;;;;;;;17.40;72.20;;;16.56;67.72;96486.31;4073474;34;20020;-86
2022/05/15 04:14:20;;;;;;;;;;;17.40;72.20;;;16.59;67.42;96486.84;4073502;34;19905;-86
2022/05/15 04:16:50;;;;;;;;;;;17.40;72.30;;;16.61;67.99;96484.56;4073107;34;19912;-86
2022/05/15 04:19:22;;;;;;;;;;;17.40;72.50;;;16.60;67.46;96492.06;4073427;34;19996;-86
2022/05/15 04:21:53;;;;;;;;;;;17.50;72.00;;;16.62;67.31;96494.50;4095645;34;19912;-87
2022/05/15 04:24:21;;;;;;;;;;;17.50;71.80;;;16.63;67.63;96497.00;4095232;34;20019;-86
2022/05/15 04:26:53;;;;;;;;;;;17.50;72.40;;;16.68;68.10;96496.06;4075097;34;20049;-86
2022/05/15 04:29:30;;;;;;;;;;;17.50;72.60;;;16.70;67.39;96499.38;4075655;34;19911;-87
2022/05/15 04:31:59;;;;;;;;;;;17.50;71.80;;;16.72;67.25;96499.84;4075746;34;19912;-87
2022/05/15 04:34:37;;;;;;;;;;;17.60;71.60;;;16.74;66.97;96508.69;4054253;34;20092;-86
2022/05/15 04:37:19;;;;;;;;;;;17.60;71.60;;;16.77;67.33;96502.53;4054035;34;20074;-87
2022/05/15 04:39:56;;;;;;;;;;;17.60;71.80;;;16.77;67.52;96505.31;4098491;34;20102;-87
2022/05/15 04:42:33;;;;;;;;;;;17.60;72.10;;;16.84;67.74;96515.97;4075742;34;19905;-87
2022/05/15 04:45:08;;;;;;;;;;;17.70;72.30;;;16.85;67.89;96510.13;4098382;34;19904;-87
2022/05/15 04:47:45;;;;;;;;;;;17.70;72.30;;;16.88;68.07;96512.31;4075013;34;19905;-86
2022/05/15 04:50:33;;;;;;;;;;;17.70;72.30;;;16.91;67.84;96515.59;4073568;34;19904;-86
2022/05/15 04:53:06;;;;;;;;;;;17.70;72.20;;;16.94;67.71;96514.97;4075237;34;19911;-87
2022/05/15 04:55:38;;;;;;;;;;;17.80;72.10;;;16.94;67.54;96514.97;4097206;34;19912;-86
2022/05/15 04:58:19;;;;;;;;;;;17.80;72.00;;;16.95;67.43;96517.47;4074629;34;20000;-86
2022/05/15 05:00:55;;;;;;;;;;;17.80;72.00;;;16.99;67.46;96512.97;4075061;34;20159;-86
2022/05/15 05:03:40;;;;;;;;;;;17.80;71.90;;;17.00;67.67;96513.78;4075527;34;20170;-87
2022/05/15 05:06:20;;;;;;;;;;;17.90;71.90;;;16.99;67.22;96514.91;4074967;34;19912;-86
2022/05/15 05:08:53;;;;;;;;;;;17.90;72.00;;;16.99;67.37;96521.28;4098287;34;19995;-86
2022/05/15 05:11:27;;;;;;;;;;;17.90;71.90;;;16.97;67.39;96514.41;4053438;34;19904;-87
2022/05/15 05:14:03;;;;;;;;;;;17.80;71.90;;;17.01;67.51;96523.72;4097226;34;19911;-87
2022/05/15 05:16:48;;;;;;;;;;;17.90;72.00;;;17.03;67.45;96524.25;4074796;34;19904;-86
2022/05/15 05:19:20;;;;;;;;;;;17.90;72.00;;;17.05;67.23;96521.16;4075196;34;19911;-85
2022/05/15 05:21:55;;;;;;;;;;;17.90;72.00;;;17.06;67.35;96515.34;4053435;34;19913;-87
2022/05/15 05:24:28;;;;;;;;;;;17.90;71.90;;;17.07;67.26;96519.75;4074950;34;19904;-87
2022/05/15 05:26:56;;;;;;;;;;;17.90;71.80;;;17.09;67.06;96511.97;4052912;34;19941;-86
2022/05/15 05:29:25;;;;;;;;;;;17.90;71.70;;;17.10;67.43;96513.63;4053116;34;19904;-86
2022/05/15 05:31:54;;;;;;;;;;;18.00;71.80;;;17.13;67.27;96506.66;4075154;34;20001;-86
2022/05/15 05:34:22;;;;;;;;;;;18.00;71.70;;;17.13;67.09;96512.97;4075262;34;20094;-86
2022/05/15 05:36:51;;;;;;;;;;;18.00;71.60;;;17.12;67.20;96511.34;4074195;34;20105;-86
2022/05/15 05:39:21;;;;;;;;;;;18.00;71.60;;;17.16;67.45;96520.69;4075110;34;19920;-86
2022/05/15 05:41:51;;;;;;;;;;;18.00;71.60;;;17.17;67.20;96514.03;4075087;34;19904;-87
2022/05/15 05:44:19;;;;;;;;;;;18.00;71.60;;;17.21;67.17;96514.22;4096830;34;20166;-86
2022/05/15 05:46:48;;;;;;;;;;;18.00;71.70;;;17.25;67.11;96511.66;4070610;34;19904;-87
2022/05/15 05:49:17;;;;;;;;;;;18.10;71.60;;;17.25;66.81;96509.72;4074809;34;19904;-87
2022/05/15 05:51:46;;;;;;;;;;;18.10;71.30;;;17.29;66.81;96515.47;4074590;34;19905;-87
2022/05/15 05:54:15;;;;;;;;;;;18.10;71.20;;;17.31;66.82;96519.56;4074771;34;19992;-87
2022/05/15 05:56:44;;;;;;;;;;;18.10;71.20;;;17.31;66.69;96513.22;4096263;34;20108;-87
2022/05/15 05:59:14;;;;;;;;;;;18.10;71.00;;;17.33;66.50;96522.03;4096492;34;20244;-86
2022/05/15 06:01:43;;;;;;;;;;;18.20;70.90;;;17.33;66.49;96519.25;4074667;34;19904;-86
2022/05/15 06:06:57;;;;;;;;;;;18.20;70.90;;;17.36;66.77;96526.97;4073983;34;20139;-86
2022/05/15 06:09:26;;;;;;;;;;;18.20;71.00;;;17.37;66.59;96522.22;4074526;34;19912;-86
2022/05/15 06:11:55;;;;;;;;;;;18.20;71.00;;;17.40;66.63;96525.19;4074578;34;20050;-87
2022/05/15 06:14:26;;;;;;;;;;;18.30;71.00;;;17.42;66.68;96517.41;4096538;34;20044;-87
2022/05/15 06:16:56;;;;;;;;;;;18.30;71.00;;;17.44;66.41;96520.69;4096151;34;20061;-87
2022/05/15 06:19:28;;;;;;;;;;;18.30;70.80;;;17.48;66.27;96530.03;4074415;34;19904;-87
2022/05/15 06:21:57;;;;;;;;;;;18.30;70.70;;;17.48;66.29;96521.75;4074492;34;20220;-87
2022/05/15 06:24:31;;;;;;;;;;;18.30;70.60;;;17.51;66.16;96525.81;4052423;34;19904;-88
2022/05/15 06:27:02;;;;;;;;;;;18.30;70.50;;;17.55;66.17;96517.72;4064202;34;20078;-88
2022/05/15 06:29:40;;;;;;;;;;;18.40;70.50;;;17.56;65.96;96520.16;4074542;34;19911;-87
2022/05/15 06:32:09;;;;;;;;;;;18.40;70.40;;;17.58;65.96;96522.66;4096614;34;19911;-86
2022/05/15 06:34:37;;;;;;;;;;;18.40;70.40;;;17.58;65.79;96523.44;4096389;34;19904;-87
2022/05/15 06:37:06;;;;;;;;;;;18.40;70.20;;;17.59;65.88;96530.63;4095943;34;19912;-87
2022/05/15 06:39:35;;;;;;;;;;;18.40;70.30;;;17.58;65.94;96523.44;4074355;34;19904;-88
2022/05/15 06:42:04;;;;;;;;;;;18.40;70.20;;;17.61;65.82;96517.31;4096490;34;20340;-87
2022/05/15 06:44:45;;;;;;;;;;;18.40;70.20;;;17.62;65.78;96523.69;4074375;34;20243;-88
2022/05/15 06:47:13;;;;;;;;;;;18.40;70.10;;;17.61;65.50;96522.03;4094771;34;20132;-86
2022/05/15 06:49:42;;;;;;;;;;;18.40;70.20;;;17.62;65.72;96521.72;4095688;34;19904;-85
2022/05/15 06:52:11;;;;;;;;;;;18.40;70.10;;;17.63;65.78;96526.13;4073861;34;19905;-87
2022/05/15 06:54:39;;;;;;;;;;;18.50;70.20;;;17.64;65.72;96515.88;4095938;34;20269;-87
2022/05/15 06:57:31;;;;;;;;;;;18.40;70.10;;;17.65;65.76;96528.56;4095425;34;19906;-86
2022/05/15 07:00:11;;;;;;;;;;;18.40;70.10;;;17.67;65.68;96515.25;4096426;34;19904;-87
2022/05/15 07:02:46;;;;;;;;;;;18.50;70.30;;;17.70;65.62;96513.81;4074279;34;19927;-87
2022/05/15 07:05:17;;;;;;;;;;;18.50;70.20;;;17.73;65.51;96516.78;4074208;34;20208;-87
2022/05/15 07:07:46;;;;;;;;;;;18.50;70.10;;;17.75;65.40;96511.75;4073799;34;20220;-86
2022/05/15 07:10:15;;;;;;;;;;;18.50;69.90;;;17.78;65.22;96516.66;4074168;34;20470;-87
2022/05/15 07:12:45;;;;;;;;;;;18.60;69.80;;;17.78;65.37;96516.66;4097047;34;20070;-88
2022/05/15 07:15:15;;;;;;;;;;;18.60;70.00;;;17.79;65.16;96512.78;4074321;34;19905;-87
2022/05/15 07:17:47;;;;;;;;;;;18.60;69.70;;;17.82;65.28;96522.41;4096715;34;19904;-87
2022/05/15 07:20:20;;;;;;;;;;;18.60;69.70;;;17.84;65.23;96525.69;4096915;34;19904;-86
2022/05/15 07:22:49;;;;;;;;;;;18.60;69.60;;;17.85;65.23;96526.53;4074089;34;19934;-87
2022/05/15 07:25:17;;;;;;;;;;;18.60;69.60;;;17.83;65.14;96517.69;4074228;34;20036;-87
2022/05/15 07:27:48;;;;;;;;;;;18.60;69.70;;;17.82;65.06;96510.53;4073640;34;20233;-87
2022/05/15 07:30:19;;;;;;;;;;;18.60;69.60;;;17.84;65.15;96516.56;4096128;34;20105;-87
2022/05/15 07:32:48;;;;;;;;;;;18.60;69.70;;;17.85;65.34;96521.00;4096185;34;20164;-87
2022/05/15 07:35:18;;;;;;;;;;;18.60;69.70;;;17.82;65.36;96522.41;4074062;34;19985;-87
2022/05/15 07:37:46;;;;;;;;;;;18.60;69.70;;;17.79;65.27;96517.50;4073440;34;20103;-88
2022/05/15 07:40:15;;;;;;;;;;;18.60;69.70;;;17.79;65.54;96528.59;4073870;34;20478;-87
2022/05/15 07:42:44;;;;;;;;;;;18.60;69.80;;;17.79;65.45;96523.03;4073838;34;20175;-88
2022/05/15 07:45:18;;;;;;;;;;;18.60;69.90;;;17.77;65.61;96520.56;4073801;34;19904;-87
2022/05/15 07:47:47;;;;;;;;;;;18.60;70.00;;;17.76;65.49;96518.94;4073242;34;20027;-87
2022/05/15 07:50:16;;;;;;;;;;;18.60;70.00;;;17.79;65.66;96523.84;4073856;34;20116;-89
2022/05/15 07:52:48;;;;;;;;;;;18.60;70.00;;;17.81;65.61;96519.97;4095785;34;20501;-87
2022/05/15 07:55:18;;;;;;;;;;;18.60;70.00;;;17.79;65.60;96523.84;4073958;34;19911;-85
2022/05/15 07:57:47;;;;;;;;;;;18.60;70.10;;;17.83;65.46;96529.59;4095321;34;19904;-87
2022/05/15 08:00:18;;;;;;;;;;;18.60;70.00;;;17.85;65.76;96529.28;4074515;34;19905;-87
2022/05/15 08:02:47;;;;;;;;;;;18.60;70.00;;;17.86;65.57;96533.72;4076132;34;20082;-87
2022/05/15 08:08:09;;;;;;;;;;;18.60;69.90;;;17.88;65.31;96523.94;4075579;34;20016;-87
2022/05/15 08:10:50;;;;;;;;;;;18.60;69.80;;;17.89;65.32;96521.97;4076113;34;19904;-86
2022/05/15 08:13:31;;;;;;;;;;;18.70;69.90;;;17.88;65.07;96525.91;4071474;34;19905;-87
2022/05/15 08:16:01;;;;;;;;;;;18.70;69.80;;;17.88;65.74;96525.91;4071391;34;19978;-87
2022/05/15 08:27:06;;;;;;;;;;;18.60;69.90;;;17.83;65.58;96523.25;4047428;34;19911;-86
2022/05/15 08:29:35;;;;;;;;;;;18.60;70.00;;;17.83;65.57;96526.81;4049754;34;19958;-87
2022/05/15 08:32:07;;;;;;;;;;;18.60;70.00;;;17.82;65.57;96516.88;4049973;34;19912;-87
2022/05/15 08:34:35;;;;;;;;;;;18.60;69.90;;;17.81;65.79;96517.19;4071497;34;20000;-87
2022/05/15 08:37:05;;;;;;;;;;;18.60;70.00;;;17.79;65.63;96518.31;4049316;34;20104;-88
2022/05/15 08:39:33;;;;;;;;;;;18.60;69.90;;;17.78;65.73;96511.13;4049707;34;19905;-88
2022/05/15 08:42:14;;;;;;;;;;;18.60;70.10;;;17.75;65.94;96516.47;4049895;34;20074;-88
2022/05/15 08:44:45;;;;;;;;;;;18.60;70.20;;;17.75;65.80;96511.75;4049549;34;19904;-87
2022/05/15 08:47:20;;;;;;;;;;;18.60;70.30;;;17.73;65.76;96518.72;4092841;34;20221;-87
2022/05/15 08:49:53;;;;;;;;;;;18.60;70.20;;;17.74;65.76;96517.59;4071373;34;19905;-88
2022/05/15 08:52:25;;;;;;;;;;;18.60;70.30;;;17.74;65.76;96520.38;4072372;34;19912;-87
2022/05/15 08:54:57;;;;;;;;;;;18.60;70.30;;;17.72;66.16;96517.94;4071317;34;20183;-88
2022/05/15 08:57:34;;;;;;;;;;;18.50;70.30;;;17.70;65.90;96530.41;4049269;34;20021;-87
2022/05/15 09:00:05;;;;;;;;;;;18.50;70.40;;;17.67;66.20;96533.81;4071204;34;19905;-87
2022/05/15 09:02:35;;;;;;;;;;;18.50;70.40;;;17.62;65.94;96518.16;4071207;34;19905;-87
2022/05/15 09:05:04;;;;;;;;;;;18.50;70.50;;;17.62;66.21;96529.22;4071292;34;20144;-88
2022/05/15 09:07:57;;;;;;;;;;;18.40;70.50;;;17.59;66.30;96527.06;4048771;34;20421;-87
2022/05/15 09:10:37;;;;;;;;;;;18.40;70.70;;;17.60;66.53;96534.25;4049286;34;19945;-88
2022/05/15 09:13:11;;;;;;;;;;;18.40;70.80;;;17.60;66.27;96525.94;4048773;34;19905;-87
2022/05/15 09:15:58;;;;;;;;;;;18.40;70.80;;;17.60;66.44;96526.75;4049579;34;19987;-88
2022/05/15 09:18:29;;;;;;;;;;;18.40;70.80;;;17.60;66.28;96520.41;4071164;34;20128;-87
2022/05/15 09:21:04;;;;;;;;;;;18.40;70.80;;;17.63;66.35;96528.91;4071153;34;20363;-87
2022/05/15 09:23:38;;;;;;;;;;;18.40;70.80;;;17.63;66.19;96517.00;4051151;34;19912;-87
2022/05/15 09:26:16;;;;;;;;;;;18.40;70.70;;;17.65;66.15;96520.28;4075113;34;20163;-87
2022/05/15 09:28:47;;;;;;;;;;;18.50;70.80;;;17.67;66.14;96509.72;4075102;34;20173;-87
2022/05/15 09:31:27;;;;;;;;;;;18.50;70.70;;;17.68;66.10;96527.16;4053773;34;19937;-88
2022/05/15 09:34:00;;;;;;;;;;;18.50;70.70;;;17.66;66.27;96512.81;4097308;34;20128;-88
2022/05/15 09:36:30;;;;;;;;;;;18.50;70.70;;;17.64;66.25;96511.16;4074827;34;19927;-88
2022/05/15 09:39:24;;;;;;;;;;;18.50;70.70;;;17.64;66.02;96507.56;4098221;34;19921;-86
2022/05/15 09:44:47;;;;;;;;;;;18.50;70.70;;;17.64;66.60;96507.56;4075163;34;19997;-87
2022/05/15 09:47:32;;;;;;;;;;;18.50;70.70;;;17.63;66.31;96509.53;4052840;34;19904;-87
2022/05/15 09:50:04;;;;;;;;;;;18.50;70.80;;;17.63;66.25;96508.69;4096983;34;19904;-87
2022/05/15 09:52:37;;;;;;;;;;;18.50;70.80;;;17.62;66.38;96509.84;4098077;34;20069;-87
2022/05/15 09:55:13;;;;;;;;;;;18.40;70.80;;;17.60;66.33;96504.59;4053366;34;19904;-87
2022/05/15 09:57:54;;;;;;;;;;;18.40;70.70;;;17.61;66.21;96499.91;4074487;34;19904;-86
2022/05/15 10:00:23;;;;;;;;;;;18.40;70.70;;;17.60;66.34;96499.06;4053236;34;19915;-87
2022/05/15 10:02:53;;;;;;;;;;;18.40;70.70;;;17.61;66.39;96505.44;4075031;34;20167;-87
2022/05/15 10:05:25;;;;;;;;;;;18.40;70.80;;;17.58;66.60;96497.72;4096926;34;20032;-87
2022/05/15 10:08:00;;;;;;;;;;;18.40;70.80;;;17.57;66.32;96493.31;4074456;34;20183;-87
2022/05/15 10:10:33;;;;;;;;;;;18.40;70.90;;;17.57;66.46;96493.31;4074950;34;20039;-86
2022/05/15 10:13:06;;;;;;;;;;;18.40;71.00;;;17.59;66.49;96496.59;4097039;34;19912;-87
2022/05/15 10:15:40;;;;;;;;;;;18.40;71.80;;;17.58;66.58;96494.97;4074882;34;19905;-87
2022/05/15 10:18:10;;;;;;;;;;;18.40;71.00;;;17.55;66.46;96496.41;4096400;34;20063;-86
2022/05/15 10:20:41;;;;;;;;;;;18.40;71.00;;;17.56;66.54;96503.56;4074864;34;20023;-88
2022/05/15 10:23:14;;;;;;;;;;;18.40;71.00;;;17.55;66.51;96503.88;4074584;34;19928;-88
2022/05/15 10:25:51;;;;;;;;;;;18.40;71.10;;;17.55;66.92;96501.94;4096782;34;20159;-88
2022/05/15 10:28:32;;;;;;;;;;;18.40;71.10;;;17.55;66.57;96503.88;4074485;34;19904;-88
2022/05/15 10:31:06;;;;;;;;;;;18.40;71.10;;;17.54;66.83;96502.25;4074740;34;20085;-86
2022/05/15 10:33:37;;;;;;;;;;;18.40;71.10;;;17.52;66.72;96491.50;4074609;34;19904;-86
2022/05/15 10:36:27;;;;;;;;;;;18.40;71.20;;;17.54;66.80;96496.69;4096099;34;20077;-87
2022/05/15 10:39:01;;;;;;;;;;;18.40;71.20;;;17.54;66.59;96500.31;4074179;34;19911;-87
2022/05/15 10:41:38;;;;;;;;;;;18.40;71.30;;;17.54;66.65;96499.47;4090048;34;20217;-87
2022/05/15 10:44:39;;;;;;;;;;;18.40;71.10;;;17.55;66.60;96492.81;4096461;34;19967;-88
2022/05/15 10:47:18;;;;;;;;;;;18.40;71.20;;;17.56;66.65;96486.16;4096244;34;20249;-87
2022/05/15 10:50:07;;;;;;;;;;;18.40;71.10;;;17.56;66.78;96491.69;4096487;34;20002;-87
2022/05/15 10:52:55;;;;;;;;;;;18.40;71.00;;;17.55;66.76;96490.88;4070112;34;20056;-87
2022/05/15 10:58:29;;;;;;;;;;;18.40;71.20;;;17.54;66.71;96483.69;4047812;34;19904;-88
2022/05/15 11:01:02;;;;;;;;;;;18.40;71.20;;;17.53;66.72;96481.22;4070186;34;20070;-87
2022/05/15 11:03:56;;;;;;;;;;;18.40;71.20;;;17.54;66.72;96493.94;4047859;34;20364;-87
2022/05/15 11:06:49;;;;;;;;;;;18.40;71.20;;;17.55;66.72;96487.28;4069135;34;20180;-87
2022/05/15 11:09:22;;;;;;;;;;;18.40;71.20;;;17.52;66.74;96485.13;4048070;34;19905;-87
2022/05/15 11:12:08;;;;;;;;;;;18.40;71.20;;;17.53;66.77;96482.06;4070089;34;19905;-87
2022/05/15 11:14:42;;;;;;;;;;;18.40;71.30;;;17.52;66.97;96479.56;4048168;34;19905;-87
2022/05/15 11:17:16;;;;;;;;;;;18.30;71.30;;;17.52;66.96;96488.72;4069457;34;19912;-87
2022/05/15 11:19:45;;;;;;;;;;;18.30;71.30;;;17.52;66.96;96487.88;4069789;34;19912;-87
2022/05/15 11:22:30;;;;;;;;;;;18.30;71.40;;;17.52;66.82;96487.88;4068913;34;19912;-87
2022/05/15 11:25:07;;;;;;;;;;;18.30;71.30;;;17.51;67.05;96477.94;4074317;34;20128;-87
2022/05/15 11:27:42;;;;;;;;;;;18.30;71.40;;;17.51;66.93;96477.94;4073689;34;19911;-87
2022/05/15 11:30:14;;;;;;;;;;;18.30;71.40;;;17.51;66.94;96472.41;4096056;34;19904;-87
2022/05/15 11:32:59;;;;;;;;;;;18.30;71.40;;;17.50;66.94;96474.38;4074155;34;19904;-87
2022/05/15 11:35:34;;;;;;;;;;;18.30;71.50;;;17.49;66.91;96467.19;4096689;34;19905;-87
2022/05/15 11:38:21;;;;;;;;;;;18.30;71.50;;;17.53;66.92;96472.91;4076631;34;20113;-87
2022/05/15 11:40:52;;;;;;;;;;;18.30;71.50;;;17.52;66.92;96472.13;4096060;34;20540;-87
2022/05/15 11:43:57;;;;;;;;;;;18.30;71.40;;;17.49;66.91;96470.75;4073918;34;20015;-87
2022/05/15 11:47:02;;;;;;;;;;;18.30;71.50;;;17.48;67.12;96469.16;4073228;34;20255;-88
2022/05/15 11:49:41;;;;;;;;;;;18.30;71.40;;;17.47;67.13;96466.66;4091708;34;19904;-88
2022/05/15 11:52:21;;;;;;;;;;;18.30;71.60;;;17.46;66.86;96471.41;4073983;34;19904;-87
2022/05/15 11:54:59;;;;;;;;;;;18.30;71.60;;;17.47;67.21;96473.03;4073970;34;20129;-87
2022/05/15 11:57:44;;;;;;;;;;;18.30;71.60;;;17.45;67.04;96455.09;4073465;34;20030;-87
2022/05/15 12:00:24;;;;;;;;;;;18.30;71.60;;;17.47;67.04;96459.19;4073791;34;20052;-87
2022/05/15 12:02:56;;;;;;;;;;;18.30;71.60;;;17.49;66.94;96465.22;4073774;34;20044;-87
2022/05/15 12:05:37;;;;;;;;;;;18.30;71.50;;;17.46;66.95;96449.25;4095914;34;20231;-87